sensor_id;sensor_type;location;lat;lon;timestamp;temperature;humidity
26212;DHT22;13951;49.516;6.094;2022-10-17T00:02:08;15.40;99.90
26212;DHT22;13951;49.516;6.094;2022-10-17T00:04:41;15.40;99.90
26212;DHT22;13951;49.516;6.094;2022-10-17T00:07:14;15.40;99.90
26212;DHT22;13951;49.516;6.094;2022-10-17T00:09:47;15.40;99.90
26212;DHT22;13951;49.516;6.094;2022-10-17T00:12:20;15.40;99.90
26212;DHT22;13951;49.516;6.094;2022-10-17T00:14:53;15.40;99.90
26212;DHT22;13951;49.516;6.094;2022-10-17T00:17:25;15.40;99.90
26212;DHT22;13951;49.516;6.094;2022-10-17T00:19:59;15.40;99.90
26212;DHT22;13951;49.516;6.094;2022-10-17T00:22:32;15.40;99.90
26212;DHT22;13951;49.516;6.094;2022-10-17T00:25:05;15.40;99.90
26212;DHT22;13951;49.516;6.094;2022-10-17T00:27:40;15.30;99.90
26212;DHT22;13951;49.516;6.094;2022-10-17T00:30:14;15.30;99.90
26212;DHT22;13951;49.516;6.094;2022-10-17T00:32:48;15.30;99.90
26212;DHT22;13951;49.516;6.094;2022-10-17T00:35:20;15.30;99.90
26212;DHT22;13951;49.516;6.094;2022-10-17T00:37:53;15.30;99.90
26212;DHT22;13951;49.516;6.094;2022-10-17T00:40:27;15.20;99.90
26212;DHT22;13951;49.516;6.094;2022-10-17T00:42:59;15.20;99.90
26212;DHT22;13951;49.516;6.094;2022-10-17T00:45:32;15.20;99.90
26212;DHT22;13951;49.516;6.094;2022-10-17T00:48:08;15.20;99.90
26212;DHT22;13951;49.516;6.094;2022-10-17T00:50:45;15.10;99.90
26212;DHT22;13951;49.516;6.094;2022-10-17T00:53:20;15.10;99.90
26212;DHT22;13951;49.516;6.094;2022-10-17T00:55:53;15.10;99.90
26212;DHT22;13951;49.516;6.094;2022-10-17T00:58:25;15.10;99.90
26212;DHT22;13951;49.516;6.094;2022-10-17T01:00:58;15.10;99.90
26212;DHT22;13951;49.516;6.094;2022-10-17T01:03:32;15.10;99.90
26212;DHT22;13951;49.516;6.094;2022-10-17T01:06:05;15.00;99.90
26212;DHT22;13951;49.516;6.094;2022-10-17T01:08:38;15.00;99.90
26212;DHT22;13951;49.516;6.094;2022-10-17T01:11:34;15.00;99.90
26212;DHT22;13951;49.516;6.094;2022-10-17T01:23:15;15.00;99.90
26212;DHT22;13951;49.516;6.094;2022-10-17T01:37:46;14.90;99.90
26212;DHT22;13951;49.516;6.094;2022-10-17T01:40:28;14.90;99.90
26212;DHT22;13951;49.516;6.094;2022-10-17T01:43:25;14.90;99.90
26212;DHT22;13951;49.516;6.094;2022-10-17T01:46:21;14.90;99.90
26212;DHT22;13951;49.516;6.094;2022-10-17T01:48:59;14.90;99.90
26212;DHT22;13951;49.516;6.094;2022-10-17T01:51:37;14.90;99.90
26212;DHT22;13951;49.516;6.094;2022-10-17T01:54:28;14.90;99.90
26212;DHT22;13951;49.516;6.094;2022-10-17T01:57:06;14.80;99.90
26212;DHT22;13951;49.516;6.094;2022-10-17T01:59:43;14.80;99.90
26212;DHT22;13951;49.516;6.094;2022-10-17T02:02:19;14.80;99.90
26212;DHT22;13951;49.516;6.094;2022-10-17T02:04:54;14.80;99.90
26212;DHT22;13951;49.516;6.094;2022-10-17T02:07:28;14.80;99.90
26212;DHT22;13951;49.516;6.094;2022-10-17T02:10:04;14.70;99.90
26212;DHT22;13951;49.516;6.094;2022-10-17T02:12:44;14.70;99.90
26212;DHT22;13951;49.516;6.094;2022-10-17T02:15:30;14.70;99.90
26212;DHT22;13951;49.516;6.094;2022-10-17T02:21:21;14.70;99.90
26212;DHT22;13951;49.516;6.094;2022-10-17T02:27:08;14.70;99.90
26212;DHT22;13951;49.516;6.094;2022-10-17T02:29:49;14.60;99.90
26212;DHT22;13951;49.516;6.094;2022-10-17T02:32:55;14.60;99.90
26212;DHT22;13951;49.516;6.094;2022-10-17T02:35:33;14.60;99.90
26212;DHT22;13951;49.516;6.094;2022-10-17T02:38:08;14.60;99.90
26212;DHT22;13951;49.516;6.094;2022-10-17T02:40:43;14.60;99.90
26212;DHT22;13951;49.516;6.094;2022-10-17T02:43:18;14.60;99.90
26212;DHT22;13951;49.516;6.094;2022-10-17T02:45:52;14.60;99.90
26212;DHT22;13951;49.516;6.094;2022-10-17T02:48:41;14.60;99.90
26212;DHT22;13951;49.516;6.094;2022-10-17T02:54:17;14.60;99.90
26212;DHT22;13951;49.516;6.094;2022-10-17T02:56:55;14.60;99.90
26212;DHT22;13951;49.516;6.094;2022-10-17T02:59:31;14.60;99.90
26212;DHT22;13951;49.516;6.094;2022-10-17T03:02:09;14.60;99.90
26212;DHT22;13951;49.516;6.094;2022-10-17T03:04:44;14.60;99.90
26212;DHT22;13951;49.516;6.094;2022-10-17T03:07:17;14.60;99.90
26212;DHT22;13951;49.516;6.094;2022-10-17T03:09:50;14.50;99.90
26212;DHT22;13951;49.516;6.094;2022-10-17T03:12:23;14.50;99.90
26212;DHT22;13951;49.516;6.094;2022-10-17T03:14:57;14.50;99.90
26212;DHT22;13951;49.516;6.094;2022-10-17T03:17:30;14.50;99.90
26212;DHT22;13951;49.516;6.094;2022-10-17T03:20:04;14.50;99.90
26212;DHT22;13951;49.516;6.094;2022-10-17T03:22:37;14.50;99.90
26212;DHT22;13951;49.516;6.094;2022-10-17T03:25:18;14.50;99.90
26212;DHT22;13951;49.516;6.094;2022-10-17T03:28:00;14.50;99.90
26212;DHT22;13951;49.516;6.094;2022-10-17T03:31:14;14.50;99.90
26212;DHT22;13951;49.516;6.094;2022-10-17T03:33:50;14.50;99.90
26212;DHT22;13951;49.516;6.094;2022-10-17T03:36:30;14.50;99.90
26212;DHT22;13951;49.516;6.094;2022-10-17T03:39:06;14.50;99.90
26212;DHT22;13951;49.516;6.094;2022-10-17T03:41:42;14.40;99.90
26212;DHT22;13951;49.516;6.094;2022-10-17T03:44:20;14.40;99.90
26212;DHT22;13951;49.516;6.094;2022-10-17T03:47:02;14.40;99.90
26212;DHT22;13951;49.516;6.094;2022-10-17T03:49:38;14.40;99.90
26212;DHT22;13951;49.516;6.094;2022-10-17T03:52:18;14.40;99.90
26212;DHT22;13951;49.516;6.094;2022-10-17T03:54:59;14.30;99.90
26212;DHT22;13951;49.516;6.094;2022-10-17T03:57:43;14.30;99.90
26212;DHT22;13951;49.516;6.094;2022-10-17T04:00:31;14.30;99.90
26212;DHT22;13951;49.516;6.094;2022-10-17T04:03:08;14.30;99.90
26212;DHT22;13951;49.516;6.094;2022-10-17T04:05:53;14.30;99.90
26212;DHT22;13951;49.516;6.094;2022-10-17T04:08:58;14.30;99.90
26212;DHT22;13951;49.516;6.094;2022-10-17T04:11:37;14.30;99.90
26212;DHT22;13951;49.516;6.094;2022-10-17T04:14:10;14.30;99.90
26212;DHT22;13951;49.516;6.094;2022-10-17T04:16:44;14.30;99.90
26212;DHT22;13951;49.516;6.094;2022-10-17T04:19:21;14.30;99.90
26212;DHT22;13951;49.516;6.094;2022-10-17T04:21:55;14.30;99.90
26212;DHT22;13951;49.516;6.094;2022-10-17T04:24:28;14.30;99.90
26212;DHT22;13951;49.516;6.094;2022-10-17T04:27:13;14.30;99.90
26212;DHT22;13951;49.516;6.094;2022-10-17T04:29:49;14.30;99.90
26212;DHT22;13951;49.516;6.094;2022-10-17T04:32:27;14.30;99.90
26212;DHT22;13951;49.516;6.094;2022-10-17T04:35:06;14.20;99.90
26212;DHT22;13951;49.516;6.094;2022-10-17T04:37:40;14.20;99.90
26212;DHT22;13951;49.516;6.094;2022-10-17T04:40:18;14.20;99.90
26212;DHT22;13951;49.516;6.094;2022-10-17T04:42:51;14.20;99.90
26212;DHT22;13951;49.516;6.094;2022-10-17T04:45:28;14.20;99.90
26212;DHT22;13951;49.516;6.094;2022-10-17T04:48:05;14.20;99.90
26212;DHT22;13951;49.516;6.094;2022-10-17T04:50:38;14.10;99.90
26212;DHT22;13951;49.516;6.094;2022-10-17T04:53:36;14.10;99.90
26212;DHT22;13951;49.516;6.094;2022-10-17T04:56:15;14.10;99.90
26212;DHT22;13951;49.516;6.094;2022-10-17T04:58:49;14.10;99.90
26212;DHT22;13951;49.516;6.094;2022-10-17T05:01:22;14.10;99.90
26212;DHT22;13951;49.516;6.094;2022-10-17T05:03:57;14.10;99.90
26212;DHT22;13951;49.516;6.094;2022-10-17T05:06:30;14.10;99.90
26212;DHT22;13951;49.516;6.094;2022-10-17T05:09:20;14.10;99.90
26212;DHT22;13951;49.516;6.094;2022-10-17T05:11:53;14.10;99.90
26212;DHT22;13951;49.516;6.094;2022-10-17T05:14:27;14.10;99.90
26212;DHT22;13951;49.516;6.094;2022-10-17T05:17:00;14.10;99.90
26212;DHT22;13951;49.516;6.094;2022-10-17T05:19:33;14.10;99.90
26212;DHT22;13951;49.516;6.094;2022-10-17T05:22:06;14.10;99.90
26212;DHT22;13951;49.516;6.094;2022-10-17T05:24:39;14.10;99.90
26212;DHT22;13951;49.516;6.094;2022-10-17T05:27:13;14.10;99.90
26212;DHT22;13951;49.516;6.094;2022-10-17T05:29:46;14.10;99.90
26212;DHT22;13951;49.516;6.094;2022-10-17T05:32:27;14.10;99.90
26212;DHT22;13951;49.516;6.094;2022-10-17T05:35:01;14.00;99.90
26212;DHT22;13951;49.516;6.094;2022-10-17T05:37:36;14.00;99.90
26212;DHT22;13951;49.516;6.094;2022-10-17T05:40:10;14.00;99.90
26212;DHT22;13951;49.516;6.094;2022-10-17T05:42:46;14.00;99.90
26212;DHT22;13951;49.516;6.094;2022-10-17T05:45:20;14.00;99.90
26212;DHT22;13951;49.516;6.094;2022-10-17T05:47:53;14.00;99.90
26212;DHT22;13951;49.516;6.094;2022-10-17T05:50:26;14.00;99.90
26212;DHT22;13951;49.516;6.094;2022-10-17T05:53:34;14.00;99.90
26212;DHT22;13951;49.516;6.094;2022-10-17T05:56:11;14.00;99.90
26212;DHT22;13951;49.516;6.094;2022-10-17T05:58:44;14.00;99.90
26212;DHT22;13951;49.516;6.094;2022-10-17T06:01:35;14.00;99.90
26212;DHT22;13951;49.516;6.094;2022-10-17T06:04:08;14.00;99.90
26212;DHT22;13951;49.516;6.094;2022-10-17T06:06:42;14.00;99.90
26212;DHT22;13951;49.516;6.094;2022-10-17T06:09:15;14.00;99.90
26212;DHT22;13951;49.516;6.094;2022-10-17T06:11:52;14.00;99.90
26212;DHT22;13951;49.516;6.094;2022-10-17T06:14:28;14.00;99.90
26212;DHT22;13951;49.516;6.094;2022-10-17T06:17:05;14.00;99.90
26212;DHT22;13951;49.516;6.094;2022-10-17T06:19:38;14.10;99.90
26212;DHT22;13951;49.516;6.094;2022-10-17T06:22:13;14.10;99.90
26212;DHT22;13951;49.516;6.094;2022-10-17T06:24:47;14.10;99.90
26212;DHT22;13951;49.516;6.094;2022-10-17T06:27:20;14.10;99.90
26212;DHT22;13951;49.516;6.094;2022-10-17T06:29:53;14.20;99.90
26212;DHT22;13951;49.516;6.094;2022-10-17T06:32:26;14.20;99.90
26212;DHT22;13951;49.516;6.094;2022-10-17T06:34:59;14.20;99.90
26212;DHT22;13951;49.516;6.094;2022-10-17T06:37:33;14.20;99.90
26212;DHT22;13951;49.516;6.094;2022-10-17T06:40:12;14.20;99.90
26212;DHT22;13951;49.516;6.094;2022-10-17T06:42:47;14.30;99.90
26212;DHT22;13951;49.516;6.094;2022-10-17T06:45:49;14.30;99.90
26212;DHT22;13951;49.516;6.094;2022-10-17T06:48:30;14.30;99.90
26212;DHT22;13951;49.516;6.094;2022-10-17T06:51:18;14.30;99.90
26212;DHT22;13951;49.516;6.094;2022-10-17T06:53:58;14.40;99.90
26212;DHT22;13951;49.516;6.094;2022-10-17T06:56:38;14.40;99.90
26212;DHT22;13951;49.516;6.094;2022-10-17T06:59:35;14.40;99.90
26212;DHT22;13951;49.516;6.094;2022-10-17T07:02:15;14.50;99.90
26212;DHT22;13951;49.516;6.094;2022-10-17T07:04:49;14.50;99.90
26212;DHT22;13951;49.516;6.094;2022-10-17T07:07:22;14.50;99.90
26212;DHT22;13951;49.516;6.094;2022-10-17T07:09:55;14.60;99.90
26212;DHT22;13951;49.516;6.094;2022-10-17T07:12:29;14.60;99.90
26212;DHT22;13951;49.516;6.094;2022-10-17T07:15:03;14.60;99.90
26212;DHT22;13951;49.516;6.094;2022-10-17T07:17:36;14.60;99.90
26212;DHT22;13951;49.516;6.094;2022-10-17T07:20:09;14.70;99.90
26212;DHT22;13951;49.516;6.094;2022-10-17T07:22:43;14.70;99.90
26212;DHT22;13951;49.516;6.094;2022-10-17T07:25:16;14.70;99.90
26212;DHT22;13951;49.516;6.094;2022-10-17T07:27:55;14.80;99.90
26212;DHT22;13951;49.516;6.094;2022-10-17T07:30:29;14.80;99.90
26212;DHT22;13951;49.516;6.094;2022-10-17T07:33:07;14.80;99.90
26212;DHT22;13951;49.516;6.094;2022-10-17T07:35:40;14.90;99.90
26212;DHT22;13951;49.516;6.094;2022-10-17T07:38:13;14.90;99.90
26212;DHT22;13951;49.516;6.094;2022-10-17T07:40:53;15.00;99.90
26212;DHT22;13951;49.516;6.094;2022-10-17T07:43:26;15.10;99.90
26212;DHT22;13951;49.516;6.094;2022-10-17T07:46:00;15.10;99.90
26212;DHT22;13951;49.516;6.094;2022-10-17T07:48:34;15.20;99.90
26212;DHT22;13951;49.516;6.094;2022-10-17T07:51:08;15.30;99.90
26212;DHT22;13951;49.516;6.094;2022-10-17T07:53:41;15.40;99.90
26212;DHT22;13951;49.516;6.094;2022-10-17T07:56:20;15.50;99.90
26212;DHT22;13951;49.516;6.094;2022-10-17T07:58:56;15.60;99.90
26212;DHT22;13951;49.516;6.094;2022-10-17T08:01:29;15.70;99.90
26212;DHT22;13951;49.516;6.094;2022-10-17T08:04:01;15.80;99.90
26212;DHT22;13951;49.516;6.094;2022-10-17T08:06:35;15.80;99.90
26212;DHT22;13951;49.516;6.094;2022-10-17T08:09:08;15.90;99.90
26212;DHT22;13951;49.516;6.094;2022-10-17T08:11:41;15.80;99.90
26212;DHT22;13951;49.516;6.094;2022-10-17T08:14:15;15.90;99.90
26212;DHT22;13951;49.516;6.094;2022-10-17T08:16:48;15.90;99.90
26212;DHT22;13951;49.516;6.094;2022-10-17T08:19:21;15.90;99.90
26212;DHT22;13951;49.516;6.094;2022-10-17T08:21:54;15.90;99.90
26212;DHT22;13951;49.516;6.094;2022-10-17T08:24:27;15.90;99.90
26212;DHT22;13951;49.516;6.094;2022-10-17T08:27:00;16.00;99.90
26212;DHT22;13951;49.516;6.094;2022-10-17T08:29:33;16.10;99.90
26212;DHT22;13951;49.516;6.094;2022-10-17T08:32:06;16.10;99.90
26212;DHT22;13951;49.516;6.094;2022-10-17T08:34:47;16.20;99.90
26212;DHT22;13951;49.516;6.094;2022-10-17T08:37:32;16.30;99.90
26212;DHT22;13951;49.516;6.094;2022-10-17T08:40:19;16.40;99.90
26212;DHT22;13951;49.516;6.094;2022-10-17T08:45:56;16.50;99.90
26212;DHT22;13951;49.516;6.094;2022-10-17T08:48:37;16.60;99.90
26212;DHT22;13951;49.516;6.094;2022-10-17T08:51:32;16.60;99.90
26212;DHT22;13951;49.516;6.094;2022-10-17T08:54:15;16.70;99.90
26212;DHT22;13951;49.516;6.094;2022-10-17T08:56:50;16.80;99.90
26212;DHT22;13951;49.516;6.094;2022-10-17T08:59:27;16.90;99.90
26212;DHT22;13951;49.516;6.094;2022-10-17T09:11:00;17.30;99.90
26212;DHT22;13951;49.516;6.094;2022-10-17T09:13:54;17.40;99.90
26212;DHT22;13951;49.516;6.094;2022-10-17T09:17:11;17.60;99.90
26212;DHT22;13951;49.516;6.094;2022-10-17T09:20:21;17.70;99.90
26212;DHT22;13951;49.516;6.094;2022-10-17T09:23:10;17.80;99.90
26212;DHT22;13951;49.516;6.094;2022-10-17T09:25:47;17.90;99.90
26212;DHT22;13951;49.516;6.094;2022-10-17T09:31:12;18.00;99.90
26212;DHT22;13951;49.516;6.094;2022-10-17T09:33:50;18.10;99.90
26212;DHT22;13951;49.516;6.094;2022-10-17T09:36:33;18.20;99.90
26212;DHT22;13951;49.516;6.094;2022-10-17T09:39:15;18.20;99.90
26212;DHT22;13951;49.516;6.094;2022-10-17T09:41:52;18.20;99.90
26212;DHT22;13951;49.516;6.094;2022-10-17T09:44:30;18.20;99.90
26212;DHT22;13951;49.516;6.094;2022-10-17T09:47:21;18.10;99.90
26212;DHT22;13951;49.516;6.094;2022-10-17T09:49:56;18.10;99.90
26212;DHT22;13951;49.516;6.094;2022-10-17T09:52:42;18.10;99.90
26212;DHT22;13951;49.516;6.094;2022-10-17T09:55:47;18.20;99.90
26212;DHT22;13951;49.516;6.094;2022-10-17T09:58:21;18.20;99.90
26212;DHT22;13951;49.516;6.094;2022-10-17T10:01:20;18.30;99.90
26212;DHT22;13951;49.516;6.094;2022-10-17T10:04:12;18.40;99.90
26212;DHT22;13951;49.516;6.094;2022-10-17T10:07:03;18.60;99.90
26212;DHT22;13951;49.516;6.094;2022-10-17T10:09:36;18.70;99.90
26212;DHT22;13951;49.516;6.094;2022-10-17T10:12:33;18.80;99.90
26212;DHT22;13951;49.516;6.094;2022-10-17T10:15:36;19.00;99.90
26212;DHT22;13951;49.516;6.094;2022-10-17T10:18:28;19.10;99.90
26212;DHT22;13951;49.516;6.094;2022-10-17T10:24:11;19.50;99.90
26212;DHT22;13951;49.516;6.094;2022-10-17T10:26:46;19.70;99.90
26212;DHT22;13951;49.516;6.094;2022-10-17T10:29:33;19.80;99.90
26212;DHT22;13951;49.516;6.094;2022-10-17T10:37:55;19.90;99.90
26212;DHT22;13951;49.516;6.094;2022-10-17T10:40:37;19.90;99.90
26212;DHT22;13951;49.516;6.094;2022-10-17T10:43:40;19.80;99.90
26212;DHT22;13951;49.516;6.094;2022-10-17T10:46:25;19.70;99.90
26212;DHT22;13951;49.516;6.094;2022-10-17T10:49:00;19.70;99.90
26212;DHT22;13951;49.516;6.094;2022-10-17T10:51:41;19.70;99.90
26212;DHT22;13951;49.516;6.094;2022-10-17T10:54:20;19.90;99.90
26212;DHT22;13951;49.516;6.094;2022-10-17T10:56:58;20.00;99.90
26212;DHT22;13951;49.516;6.094;2022-10-17T11:00:02;20.10;99.90
26212;DHT22;13951;49.516;6.094;2022-10-17T11:05:37;20.50;99.90
26212;DHT22;13951;49.516;6.094;2022-10-17T11:08:28;20.70;99.90
26212;DHT22;13951;49.516;6.094;2022-10-17T11:11:40;20.90;99.90
26212;DHT22;13951;49.516;6.094;2022-10-17T11:14:30;21.20;99.90
26212;DHT22;13951;49.516;6.094;2022-10-17T11:20:09;21.50;99.90
26212;DHT22;13951;49.516;6.094;2022-10-17T11:33:46;23.60;99.90
26212;DHT22;13951;49.516;6.094;2022-10-17T11:36:26;23.70;99.90
26212;DHT22;13951;49.516;6.094;2022-10-17T11:39:34;23.80;99.90
26212;DHT22;13951;49.516;6.094;2022-10-17T11:42:32;23.60;99.90
26212;DHT22;13951;49.516;6.094;2022-10-17T11:45:13;23.30;99.90
26212;DHT22;13951;49.516;6.094;2022-10-17T11:48:01;23.20;99.90
26212;DHT22;13951;49.516;6.094;2022-10-17T11:50:38;23.30;99.90
26212;DHT22;13951;49.516;6.094;2022-10-17T11:53:53;23.20;99.90
26212;DHT22;13951;49.516;6.094;2022-10-17T11:59:28;22.90;99.90
26212;DHT22;13951;49.516;6.094;2022-10-17T12:02:10;22.70;99.90
26212;DHT22;13951;49.516;6.094;2022-10-17T12:05:00;22.50;99.90
26212;DHT22;13951;49.516;6.094;2022-10-17T12:07:58;22.20;99.90
26212;DHT22;13951;49.516;6.094;2022-10-17T12:21:55;20.60;99.90
26212;DHT22;13951;49.516;6.094;2022-10-17T12:24:43;20.40;99.90
26212;DHT22;13951;49.516;6.094;2022-10-17T12:27:38;20.30;99.90
26212;DHT22;13951;49.516;6.094;2022-10-17T12:30:24;20.20;99.90
26212;DHT22;13951;49.516;6.094;2022-10-17T12:35:39;20.00;99.90
26212;DHT22;13951;49.516;6.094;2022-10-17T12:40:52;19.90;99.90
26212;DHT22;13951;49.516;6.094;2022-10-17T12:46:03;19.70;99.90
26212;DHT22;13951;49.516;6.094;2022-10-17T12:51:17;19.70;99.90
26212;DHT22;13951;49.516;6.094;2022-10-17T12:54:14;19.70;99.90
26212;DHT22;13951;49.516;6.094;2022-10-17T12:56:48;19.70;99.90
26212;DHT22;13951;49.516;6.094;2022-10-17T12:59:27;19.90;99.90
26212;DHT22;13951;49.516;6.094;2022-10-17T13:02:02;20.10;99.90
26212;DHT22;13951;49.516;6.094;2022-10-17T13:04:35;20.20;99.90
26212;DHT22;13951;49.516;6.094;2022-10-17T13:07:20;20.30;99.90
26212;DHT22;13951;49.516;6.094;2022-10-17T13:09:53;20.30;99.90
26212;DHT22;13951;49.516;6.094;2022-10-17T13:12:26;20.40;99.90
26212;DHT22;13951;49.516;6.094;2022-10-17T13:15:03;20.40;99.90
26212;DHT22;13951;49.516;6.094;2022-10-17T13:17:38;20.50;99.90
26212;DHT22;13951;49.516;6.094;2022-10-17T13:20:20;20.60;99.90
26212;DHT22;13951;49.516;6.094;2022-10-17T13:23:00;20.70;99.90
26212;DHT22;13951;49.516;6.094;2022-10-17T13:25:33;20.70;99.90
26212;DHT22;13951;49.516;6.094;2022-10-17T13:28:12;20.80;99.90
26212;DHT22;13951;49.516;6.094;2022-10-17T13:30:46;20.80;99.90
26212;DHT22;13951;49.516;6.094;2022-10-17T13:33:32;20.80;99.90
26212;DHT22;13951;49.516;6.094;2022-10-17T13:36:11;20.70;99.90
26212;DHT22;13951;49.516;6.094;2022-10-17T13:38:47;20.80;99.90
26212;DHT22;13951;49.516;6.094;2022-10-17T13:41:27;20.80;99.90
26212;DHT22;13951;49.516;6.094;2022-10-17T13:44:16;20.90;99.90
26212;DHT22;13951;49.516;6.094;2022-10-17T13:46:49;21.00;99.90
26212;DHT22;13951;49.516;6.094;2022-10-17T13:49:33;20.90;99.90
26212;DHT22;13951;49.516;6.094;2022-10-17T13:52:15;20.90;99.90
26212;DHT22;13951;49.516;6.094;2022-10-17T13:54:50;20.90;99.90
26212;DHT22;13951;49.516;6.094;2022-10-17T13:57:28;20.90;99.90
26212;DHT22;13951;49.516;6.094;2022-10-17T14:00:06;20.80;99.90
26212;DHT22;13951;49.516;6.094;2022-10-17T14:02:44;20.80;99.90
26212;DHT22;13951;49.516;6.094;2022-10-17T14:05:18;20.80;99.90
26212;DHT22;13951;49.516;6.094;2022-10-17T14:07:58;20.80;99.90
26212;DHT22;13951;49.516;6.094;2022-10-17T14:10:51;20.80;99.90
26212;DHT22;13951;49.516;6.094;2022-10-17T14:13:33;20.80;99.90
26212;DHT22;13951;49.516;6.094;2022-10-17T14:16:07;20.70;99.90
26212;DHT22;13951;49.516;6.094;2022-10-17T14:18:41;20.70;99.90
26212;DHT22;13951;49.516;6.094;2022-10-17T14:21:21;20.60;99.90
26212;DHT22;13951;49.516;6.094;2022-10-17T14:24:26;20.50;99.90
26212;DHT22;13951;49.516;6.094;2022-10-17T14:26:59;20.50;99.90
26212;DHT22;13951;49.516;6.094;2022-10-17T14:29:49;20.40;99.90
26212;DHT22;13951;49.516;6.094;2022-10-17T14:32:23;20.30;99.90
26212;DHT22;13951;49.516;6.094;2022-10-17T14:34:58;20.30;99.90
26212;DHT22;13951;49.516;6.094;2022-10-17T14:37:52;20.30;99.90
26212;DHT22;13951;49.516;6.094;2022-10-17T14:40:47;20.20;99.90
26212;DHT22;13951;49.516;6.094;2022-10-17T14:43:24;20.20;99.90
26212;DHT22;13951;49.516;6.094;2022-10-17T14:45:59;20.10;99.90
26212;DHT22;13951;49.516;6.094;2022-10-17T14:48:32;20.00;99.90
26212;DHT22;13951;49.516;6.094;2022-10-17T14:51:14;20.00;99.90
26212;DHT22;13951;49.516;6.094;2022-10-17T14:56:51;19.90;99.90
26212;DHT22;13951;49.516;6.094;2022-10-17T14:59:25;19.90;99.90
26212;DHT22;13951;49.516;6.094;2022-10-17T15:02:17;19.80;99.90
26212;DHT22;13951;49.516;6.094;2022-10-17T15:04:50;19.80;99.90
26212;DHT22;13951;49.516;6.094;2022-10-17T15:07:23;19.80;99.90
26212;DHT22;13951;49.516;6.094;2022-10-17T15:09:56;19.70;99.90
26212;DHT22;13951;49.516;6.094;2022-10-17T15:12:29;19.80;99.90
26212;DHT22;13951;49.516;6.094;2022-10-17T15:15:04;19.80;99.90
26212;DHT22;13951;49.516;6.094;2022-10-17T15:17:36;19.80;99.90
26212;DHT22;13951;49.516;6.094;2022-10-17T15:20:13;19.80;99.90
26212;DHT22;13951;49.516;6.094;2022-10-17T15:22:47;19.70;99.90
26212;DHT22;13951;49.516;6.094;2022-10-17T15:25:21;19.70;99.90
26212;DHT22;13951;49.516;6.094;2022-10-17T15:27:54;19.70;99.90
26212;DHT22;13951;49.516;6.094;2022-10-17T15:30:30;19.70;99.90
26212;DHT22;13951;49.516;6.094;2022-10-17T15:33:04;19.70;99.90
26212;DHT22;13951;49.516;6.094;2022-10-17T15:35:36;19.60;99.90
26212;DHT22;13951;49.516;6.094;2022-10-17T15:38:12;19.60;99.90
26212;DHT22;13951;49.516;6.094;2022-10-17T15:40:48;19.50;99.90
26212;DHT22;13951;49.516;6.094;2022-10-17T15:43:23;19.50;99.90
26212;DHT22;13951;49.516;6.094;2022-10-17T15:45:56;19.50;99.90
26212;DHT22;13951;49.516;6.094;2022-10-17T15:48:31;19.40;99.90
26212;DHT22;13951;49.516;6.094;2022-10-17T15:51:04;19.40;99.90
26212;DHT22;13951;49.516;6.094;2022-10-17T15:53:37;19.40;99.90
26212;DHT22;13951;49.516;6.094;2022-10-17T15:56:35;19.40;99.90
26212;DHT22;13951;49.516;6.094;2022-10-17T15:59:15;19.40;99.90
26212;DHT22;13951;49.516;6.094;2022-10-17T16:01:50;19.40;99.90
26212;DHT22;13951;49.516;6.094;2022-10-17T16:04:23;19.40;99.90
26212;DHT22;13951;49.516;6.094;2022-10-17T16:06:58;19.40;99.90
26212;DHT22;13951;49.516;6.094;2022-10-17T16:09:31;19.30;99.90
26212;DHT22;13951;49.516;6.094;2022-10-17T16:12:08;19.30;99.90
26212;DHT22;13951;49.516;6.094;2022-10-17T16:14:42;19.20;99.90
26212;DHT22;13951;49.516;6.094;2022-10-17T16:17:15;19.20;99.90
26212;DHT22;13951;49.516;6.094;2022-10-17T16:19:49;19.20;99.90
26212;DHT22;13951;49.516;6.094;2022-10-17T16:22:29;19.10;99.90
26212;DHT22;13951;49.516;6.094;2022-10-17T16:25:05;19.10;99.90
26212;DHT22;13951;49.516;6.094;2022-10-17T16:27:41;19.10;99.90
26212;DHT22;13951;49.516;6.094;2022-10-17T16:30:14;19.00;99.90
26212;DHT22;13951;49.516;6.094;2022-10-17T16:32:48;19.00;99.90
26212;DHT22;13951;49.516;6.094;2022-10-17T16:35:27;19.00;99.90
26212;DHT22;13951;49.516;6.094;2022-10-17T16:38:06;18.90;99.90
26212;DHT22;13951;49.516;6.094;2022-10-17T16:40:39;18.90;99.90
26212;DHT22;13951;49.516;6.094;2022-10-17T16:43:12;18.90;99.90
26212;DHT22;13951;49.516;6.094;2022-10-17T16:45:45;18.90;99.90
26212;DHT22;13951;49.516;6.094;2022-10-17T16:48:18;18.90;99.90
26212;DHT22;13951;49.516;6.094;2022-10-17T16:50:51;18.80;99.90
26212;DHT22;13951;49.516;6.094;2022-10-17T16:53:23;18.80;99.90
26212;DHT22;13951;49.516;6.094;2022-10-17T16:56:01;18.80;99.90
26212;DHT22;13951;49.516;6.094;2022-10-17T16:58:34;18.70;99.90
26212;DHT22;13951;49.516;6.094;2022-10-17T17:01:14;18.70;99.90
26212;DHT22;13951;49.516;6.094;2022-10-17T17:03:48;18.70;99.90
26212;DHT22;13951;49.516;6.094;2022-10-17T17:06:24;18.70;99.90
26212;DHT22;13951;49.516;6.094;2022-10-17T17:08:58;18.60;99.90
26212;DHT22;13951;49.516;6.094;2022-10-17T17:11:31;18.60;99.90
26212;DHT22;13951;49.516;6.094;2022-10-17T17:14:05;18.60;99.90
26212;DHT22;13951;49.516;6.094;2022-10-17T17:16:38;18.50;99.90
26212;DHT22;13951;49.516;6.094;2022-10-17T17:19:13;18.50;99.90
26212;DHT22;13951;49.516;6.094;2022-10-17T17:21:48;18.50;99.90
26212;DHT22;13951;49.516;6.094;2022-10-17T17:24:23;18.50;99.90
26212;DHT22;13951;49.516;6.094;2022-10-17T17:26:57;18.50;99.90
26212;DHT22;13951;49.516;6.094;2022-10-17T17:29:29;18.50;99.90
26212;DHT22;13951;49.516;6.094;2022-10-17T17:32:02;18.50;99.90
26212;DHT22;13951;49.516;6.094;2022-10-17T17:34:36;18.50;99.90
26212;DHT22;13951;49.516;6.094;2022-10-17T17:37:09;18.40;99.90
26212;DHT22;13951;49.516;6.094;2022-10-17T17:39:42;18.40;99.90
26212;DHT22;13951;49.516;6.094;2022-10-17T17:42:15;18.40;99.90
26212;DHT22;13951;49.516;6.094;2022-10-17T17:44:48;18.40;99.90
26212;DHT22;13951;49.516;6.094;2022-10-17T17:47:21;18.40;99.90
26212;DHT22;13951;49.516;6.094;2022-10-17T17:49:54;18.30;99.90
26212;DHT22;13951;49.516;6.094;2022-10-17T17:52:26;18.30;99.90
26212;DHT22;13951;49.516;6.094;2022-10-17T17:55:01;18.30;99.90
26212;DHT22;13951;49.516;6.094;2022-10-17T17:57:34;18.30;99.90
26212;DHT22;13951;49.516;6.094;2022-10-17T18:00:07;18.20;99.90
26212;DHT22;13951;49.516;6.094;2022-10-17T18:02:40;18.20;99.90
26212;DHT22;13951;49.516;6.094;2022-10-17T18:05:16;18.20;99.90
26212;DHT22;13951;49.516;6.094;2022-10-17T18:07:49;18.20;99.90
26212;DHT22;13951;49.516;6.094;2022-10-17T18:10:21;18.10;99.90
26212;DHT22;13951;49.516;6.094;2022-10-17T18:12:57;18.10;99.90
26212;DHT22;13951;49.516;6.094;2022-10-17T18:15:35;18.10;99.90
26212;DHT22;13951;49.516;6.094;2022-10-17T18:18:11;18.00;99.90
26212;DHT22;13951;49.516;6.094;2022-10-17T18:20:45;18.00;99.90